Terminal Aerodrome Forecast
Issued by NWS Topeka, KS

Home | Current Version | Previous Version | Graphics & Text | Print | Product List | Glossary On
Versions: 1 2 3 4 5 6 7 8 9 10 11 12 13 14 15 16
000
FTUS43 KTOP 261159 CCA
TAFTOP
TAF COR
KTOP 261159Z 2612/2712 17008KT P6SM SCT200
      TEMPO 2612/2614 -TSRA BKN060CB
     FM262300 18011KT P6SM -SHRA VCTS BKN060CB
     FM270700 VRB04KT P6SM BKN060=

USA.gov is the U.S. government's official web portal to all federal, state and local government web resources and services.